createdAt,value
2019-06-20T00:00:46.282Z,95.50
2019-06-20T00:03:15.150Z,95.44
2019-06-20T00:08:45.383Z,96.40
2019-06-20T00:11:29.137Z,96.46
2019-06-20T00:13:52.263Z,96.16
2019-06-20T00:16:21.355Z,97.34
2019-06-20T00:18:55.866Z,96.23
2019-06-20T00:21:24.884Z,96.75
2019-06-20T00:23:53.741Z,97.65
2019-06-20T00:26:22.678Z,96.38
2019-06-20T00:28:51.623Z,97.11
2019-06-20T00:31:20.559Z,97.23
2019-06-20T00:33:49.466Z,97.60
2019-06-20T00:36:18.368Z,97.56
2019-06-20T00:38:47.418Z,97.89
2019-06-20T00:41:38.704Z,97.89
2019-06-20T00:44:07.806Z,98.32
2019-06-20T00:46:36.779Z,98.34
2019-06-20T00:49:05.816Z,98.50
2019-06-20T00:51:34.779Z,98.17
2019-06-20T00:54:03.812Z,98.00
2019-06-20T00:56:35.937Z,97.94
2019-06-20T00:59:04.916Z,98.09
2019-06-20T01:01:51.502Z,98.59
2019-06-20T01:04:25.179Z,98.66
2019-06-20T01:06:54.371Z,98.67
2019-06-20T01:09:23.369Z,97.93
2019-06-20T01:11:52.290Z,97.28
2019-06-20T01:14:21.369Z,97.80
2019-06-20T01:16:51.896Z,97.92
2019-06-20T01:19:20.937Z,97.84
2019-06-20T01:21:49.965Z,97.49
2019-06-20T01:24:18.816Z,97.66
2019-06-20T01:27:00.413Z,98.04
2019-06-20T01:31:57.878Z,97.88
2019-06-20T01:34:26.691Z,97.89
2019-06-20T01:36:55.472Z,98.16
2019-06-20T01:39:30.798Z,98.21
2019-06-20T01:41:59.654Z,98.74
2019-06-20T01:44:28.457Z,99.43
2019-06-20T01:46:57.326Z,99.99
2019-06-20T01:49:26.126Z,99.22
2019-06-20T01:51:55.057Z,99.10
2019-06-20T01:54:23.980Z,98.12
2019-06-20T01:56:52.784Z,98.30
2019-06-20T01:59:21.597Z,98.87
2019-06-20T02:01:50.504Z,98.81
2019-06-20T02:04:19.373Z,99.12
2019-06-20T02:06:48.834Z,98.66
2019-06-20T02:09:17.655Z,98.82
2019-06-20T02:11:46.613Z,98.91
2019-06-20T02:14:15.399Z,99.14
2019-06-20T02:16:44.240Z,99.54
2019-06-20T02:19:13.464Z,99.82
2019-06-20T02:21:42.514Z,99.98
2019-06-20T02:24:11.588Z,100.00
2019-06-20T02:26:40.516Z,100.00
2019-06-20T02:29:11.927Z,99.92
2019-06-20T02:31:40.971Z,99.78
2019-06-20T02:34:09.754Z,99.65
2019-06-20T02:36:38.530Z,100.00
2019-06-20T02:39:08.193Z,100.00
2019-06-20T02:41:37.118Z,100.00
2019-06-20T02:44:24.788Z,100.00
2019-06-20T02:46:39.504Z,100.00
2019-06-20T02:49:08.278Z,100.00
2019-06-20T02:51:37.698Z,100.00
2019-06-20T02:54:06.573Z,100.00
2019-06-20T02:56:35.351Z,100.00
2019-06-20T02:59:04.316Z,100.00
2019-06-20T03:04:01.911Z,100.00
2019-06-20T03:06:30.749Z,100.00
2019-06-20T03:08:59.628Z,100.00
2019-06-20T03:11:28.479Z,100.00
2019-06-20T03:13:57.285Z,100.00
2019-06-20T03:16:26.115Z,100.00
2019-06-20T03:18:54.919Z,100.00
2019-06-20T03:21:23.723Z,100.00
2019-06-20T03:23:53.186Z,100.00
2019-06-20T03:26:21.998Z,100.00
2019-06-20T03:28:50.766Z,100.00
2019-06-20T03:31:19.572Z,100.00
2019-06-20T03:33:48.369Z,100.00
2019-06-20T03:36:17.225Z,100.00
2019-06-20T03:38:46.066Z,100.00
2019-06-20T03:41:14.927Z,100.00
2019-06-20T03:43:43.861Z,100.00
2019-06-20T03:46:12.751Z,100.00
2019-06-20T03:48:41.639Z,100.00
2019-06-20T03:51:10.559Z,100.00
2019-06-20T03:53:39.314Z,100.00
2019-06-20T03:56:08.140Z,100.00
2019-06-20T03:58:37.099Z,99.70
2019-06-20T04:01:05.891Z,100.00
2019-06-20T04:03:34.672Z,100.00
2019-06-20T04:06:03.461Z,100.00
2019-06-20T04:08:32.249Z,100.00
2019-06-20T04:11:09.461Z,99.83
2019-06-20T04:13:38.244Z,99.48
2019-06-20T04:16:08.943Z,99.36
2019-06-20T04:18:37.926Z,99.60
2019-06-20T04:21:06.837Z,99.21
2019-06-20T04:23:35.914Z,99.12
2019-06-20T04:26:04.787Z,99.21
2019-06-20T04:28:34.233Z,98.22
2019-06-20T04:31:04.229Z,98.41
2019-06-20T04:33:32.995Z,99.44
2019-06-20T04:36:03.722Z,98.66
2019-06-20T04:38:42.257Z,99.03
2019-06-20T04:41:11.176Z,99.97
2019-06-20T04:43:40.081Z,99.87
2019-06-20T04:46:17.954Z,98.59
2019-06-20T04:48:47.373Z,97.74
2019-06-20T04:51:16.193Z,97.65
2019-06-20T04:53:45.017Z,98.60
2019-06-20T04:56:13.828Z,98.92
2019-06-20T04:58:42.626Z,99.35
2019-06-20T05:01:11.692Z,99.10
2019-06-20T05:03:40.487Z,99.08
2019-06-20T05:06:09.546Z,98.77
2019-06-20T05:08:38.433Z,98.12
2019-06-20T05:11:07.468Z,97.88
2019-06-20T05:13:36.422Z,98.22
2019-06-20T05:16:05.379Z,96.72
2019-06-20T05:18:34.211Z,96.52
2019-06-20T05:21:04.093Z,96.39
2019-06-20T05:23:32.909Z,96.42
2019-06-20T05:26:01.687Z,96.75
2019-06-20T05:28:30.672Z,96.20
2019-06-20T05:30:59.477Z,96.68
2019-06-20T05:33:28.958Z,96.18
2019-06-20T05:35:57.998Z,95.54
2019-06-20T05:38:26.810Z,95.18
2019-06-20T05:41:02.515Z,94.22
2019-06-20T05:43:31.598Z,94.33
2019-06-20T05:46:09.515Z,93.30
2019-06-20T05:48:31.120Z,94.10
2019-06-20T05:51:00.226Z,94.57
2019-06-20T05:53:29.092Z,92.54
2019-06-20T05:55:57.882Z,92.06
2019-06-20T05:58:27.127Z,93.05
2019-06-20T06:00:56.107Z,93.54
2019-06-20T06:03:26.245Z,94.77
2019-06-20T06:05:55.343Z,93.38
2019-06-20T06:08:24.468Z,93.27
2019-06-20T06:10:54.769Z,93.82
2019-06-20T06:13:23.557Z,92.47
2019-06-20T06:15:52.332Z,93.13
2019-06-20T06:18:21.499Z,93.20
2019-06-20T06:20:50.297Z,93.25
2019-06-20T06:23:19.125Z,93.46
2019-06-20T06:25:47.981Z,94.08
2019-06-20T06:28:16.885Z,93.72
2019-06-20T06:30:48.795Z,93.35
2019-06-20T06:33:17.607Z,93.07
2019-06-20T06:35:46.923Z,94.11
2019-06-20T06:38:22.134Z,93.72
2019-06-20T06:40:47.109Z,94.05
2019-06-20T06:43:15.900Z,93.84
2019-06-20T06:45:44.692Z,94.22
2019-06-20T06:48:13.716Z,93.53
2019-06-20T06:50:42.658Z,94.07
2019-06-20T06:53:11.482Z,93.43
2019-06-20T06:55:40.824Z,93.34
2019-06-20T06:58:09.596Z,94.09
2019-06-20T07:00:38.485Z,93.53
2019-06-20T07:03:07.389Z,93.46
2019-06-20T07:05:36.853Z,94.14
2019-06-20T07:08:05.677Z,94.59
2019-06-20T07:10:34.572Z,93.67
2019-06-20T07:13:03.378Z,94.12
2019-06-20T07:15:32.421Z,94.32
2019-06-20T07:18:01.297Z,94.69
2019-06-20T07:20:30.145Z,93.13
2019-06-20T07:22:59.287Z,93.11
2019-06-20T07:25:28.406Z,93.56
2019-06-20T07:27:57.251Z,92.85
2019-06-20T07:30:27.909Z,92.28
2019-06-20T07:32:57.656Z,92.53
2019-06-20T07:35:26.539Z,92.99
2019-06-20T07:37:55.442Z,93.02
2019-06-20T07:40:24.506Z,92.76
2019-06-20T07:42:53.379Z,92.54
2019-06-20T07:45:27.940Z,92.63
2019-06-20T07:47:56.891Z,93.07
2019-06-20T07:50:25.842Z,92.75
2019-06-20T07:53:02.130Z,92.70
2019-06-20T07:55:25.222Z,92.58
2019-06-20T07:57:54.046Z,92.86
2019-06-20T08:00:23.314Z,92.47
2019-06-20T08:02:52.327Z,93.15
2019-06-20T08:05:21.571Z,93.22
2019-06-20T08:07:50.433Z,93.88
2019-06-20T08:10:19.885Z,94.06
2019-06-20T08:12:48.974Z,94.21
2019-06-20T08:15:18.338Z,93.97
2019-06-20T08:17:47.205Z,94.17
2019-06-20T08:20:16.480Z,93.02
2019-06-20T08:22:45.442Z,92.95
2019-06-20T08:25:14.970Z,92.86
2019-06-20T08:27:49.780Z,92.74
2019-06-20T08:30:27.335Z,92.81
2019-06-20T08:32:58.150Z,92.51
2019-06-20T08:35:28.658Z,91.38
2019-06-20T08:37:59.268Z,91.64
2019-06-20T08:40:30.133Z,90.93
2019-06-20T08:43:00.176Z,90.20
2019-06-20T08:45:31.093Z,89.53
2019-06-20T08:48:00.118Z,88.46
2019-06-20T08:50:28.996Z,88.97
2019-06-20T08:52:58.510Z,88.68
2019-06-20T08:55:28.966Z,88.85
2019-06-20T08:57:59.447Z,88.69
2019-06-20T09:00:29.224Z,88.56
2019-06-20T09:02:58.726Z,88.36
2019-06-20T09:05:30.584Z,88.33
2019-06-20T09:10:36.451Z,89.35
2019-06-20T09:13:06.599Z,88.49
2019-06-20T09:15:35.536Z,87.71
2019-06-20T09:18:04.498Z,87.55
2019-06-20T09:20:33.364Z,86.56
2019-06-20T09:23:03.313Z,86.85
2019-06-20T09:25:32.303Z,86.96
2019-06-20T09:28:02.645Z,86.74
2019-06-20T09:30:32.131Z,86.58
2019-06-20T09:33:00.999Z,86.39
2019-06-20T09:35:29.975Z,86.45
2019-06-20T09:37:59.938Z,86.36
2019-06-20T09:40:28.933Z,86.19
2019-06-20T09:42:58.770Z,85.50
2019-06-20T09:45:27.870Z,85.58
2019-06-20T09:47:58.118Z,85.83
2019-06-20T09:50:27.237Z,84.92
2019-06-20T09:52:56.576Z,85.27
2019-06-20T09:55:25.716Z,85.44
2019-06-20T09:57:55.902Z,85.33
2019-06-20T10:00:25.927Z,85.52
2019-06-20T10:02:56.324Z,85.97
2019-06-20T10:05:25.405Z,85.35
2019-06-20T10:07:54.627Z,85.12
2019-06-20T10:10:28.318Z,84.23
2019-06-20T10:12:57.461Z,84.86
2019-06-20T10:15:27.344Z,85.36
2019-06-20T10:17:56.406Z,83.57
2019-06-20T10:20:26.634Z,84.38
2019-06-20T10:22:55.703Z,84.25
2019-06-20T10:25:24.568Z,85.24
2019-06-20T10:27:53.706Z,84.74
2019-06-20T10:30:23.236Z,84.98
2019-06-20T10:32:53.241Z,85.14
2019-06-20T10:35:25.396Z,84.58
2019-06-20T10:37:54.274Z,84.25
2019-06-20T10:40:25.022Z,84.53
2019-06-20T10:42:53.871Z,84.23
2019-06-20T10:45:25.111Z,83.52
2019-06-20T10:47:54.273Z,82.45
2019-06-20T10:50:24.190Z,82.49
2019-06-20T10:52:53.334Z,80.58
2019-06-20T10:55:25.123Z,80.26
2019-06-20T10:57:53.995Z,81.29
2019-06-20T11:00:31.448Z,80.23
2019-06-20T11:02:55.435Z,80.06
2019-06-20T11:05:24.411Z,80.01
2019-06-20T11:07:53.434Z,79.84
2019-06-20T11:10:24.098Z,79.05
2019-06-20T11:12:56.039Z,77.24
2019-06-20T11:15:23.740Z,74.96
2019-06-20T11:17:56.188Z,73.78
2019-06-20T11:20:24.420Z,73.24
2019-06-20T11:22:53.250Z,73.12
2019-06-20T11:25:22.235Z,70.52
2019-06-20T11:27:51.119Z,69.11
2019-06-20T11:30:20.614Z,69.36
2019-06-20T11:32:49.693Z,68.93
2019-06-20T11:35:18.649Z,69.22
2019-06-20T11:37:47.618Z,69.42
2019-06-20T11:40:16.943Z,69.85
2019-06-20T11:42:46.965Z,70.77
2019-06-20T11:45:16.951Z,70.65
2019-06-20T11:47:47.388Z,71.00
2019-06-20T11:50:16.975Z,71.06
2019-06-20T11:52:46.057Z,72.30
2019-06-20T11:55:15.547Z,70.14
2019-06-20T11:57:44.644Z,70.48
2019-06-20T12:00:14.537Z,68.85
2019-06-20T12:02:44.230Z,69.09
2019-06-20T12:05:15.153Z,69.50
2019-06-20T12:07:45.638Z,69.50
2019-06-20T12:10:17.082Z,70.62
2019-06-20T12:12:46.945Z,70.75
2019-06-20T12:15:17.949Z,70.02
2019-06-20T12:17:47.317Z,71.05
2019-06-20T12:20:18.275Z,71.69
2019-06-20T12:22:50.456Z,72.59
2019-06-20T12:25:18.245Z,72.29
2019-06-20T12:27:47.597Z,72.78
2019-06-20T12:30:18.711Z,72.56
2019-06-20T12:32:47.493Z,73.38
2019-06-20T12:35:16.551Z,72.70
2019-06-20T12:37:45.522Z,71.48
2019-06-20T12:40:16.042Z,71.48
2019-06-20T12:42:44.978Z,71.49
2019-06-20T12:45:15.757Z,70.82
2019-06-20T12:47:45.906Z,70.14
2019-06-20T12:50:15.702Z,70.99
2019-06-20T12:52:45.728Z,70.51
2019-06-20T12:55:15.222Z,69.72
2019-06-20T12:57:44.381Z,70.20
2019-06-20T13:00:14.259Z,69.91
2019-06-20T13:06:11.818Z,69.74
2019-06-20T13:08:43.565Z,70.30
2019-06-20T13:11:19.520Z,70.39
2019-06-20T13:13:49.177Z,71.97
2019-06-20T13:16:18.083Z,71.63
2019-06-20T13:18:48.330Z,72.27
2019-06-20T13:21:19.046Z,71.66
2019-06-20T13:23:47.720Z,74.54
2019-06-20T13:26:17.063Z,72.43
2019-06-20T13:29:00.640Z,72.90
2019-06-20T13:31:16.344Z,70.93
2019-06-20T13:33:46.755Z,71.62
2019-06-20T13:36:15.667Z,71.17
2019-06-20T13:38:44.609Z,70.31
2019-06-20T13:41:13.544Z,70.17
2019-06-20T13:43:42.359Z,69.85
2019-06-20T13:46:11.179Z,69.22
2019-06-20T13:48:40.796Z,68.83
2019-06-20T13:51:10.769Z,71.07
2019-06-20T13:53:41.156Z,72.27
2019-06-20T13:56:10.771Z,72.92
2019-06-20T13:58:40.702Z,74.37
2019-06-20T14:01:10.130Z,73.68
2019-06-20T14:03:41.673Z,73.08
2019-06-20T14:06:09.970Z,73.38
2019-06-20T14:08:38.843Z,72.87
2019-06-20T14:11:07.844Z,72.10
2019-06-20T14:13:36.948Z,72.94
2019-06-20T14:16:05.959Z,74.48
2019-06-20T14:18:34.797Z,72.70
2019-06-20T14:21:03.710Z,73.85
2019-06-20T14:23:34.131Z,73.17
2019-06-20T14:26:03.026Z,73.12
2019-06-20T14:28:32.077Z,70.64
2019-06-20T14:31:00.882Z,71.65
2019-06-20T14:33:31.867Z,71.54
2019-06-20T14:36:00.347Z,70.82
2019-06-20T14:38:29.531Z,70.33
2019-06-20T14:40:58.314Z,69.61
2019-06-20T14:43:27.129Z,68.62
2019-06-20T14:45:56.543Z,69.32
2019-06-20T14:48:25.465Z,69.37
2019-06-20T14:50:55.489Z,69.91
2019-06-20T14:53:24.357Z,71.18
2019-06-20T14:55:53.917Z,69.59
2019-06-20T14:58:22.835Z,69.52
2019-06-20T15:00:52.137Z,70.48
2019-06-20T15:03:21.024Z,69.40
2019-06-20T15:05:50.467Z,69.44
2019-06-20T15:08:19.809Z,69.37
2019-06-20T15:10:50.131Z,71.20
2019-06-20T15:13:19.662Z,70.72
2019-06-20T15:15:49.523Z,71.64
2019-06-20T15:18:18.888Z,70.25
2019-06-20T15:20:49.888Z,70.75
2019-06-20T15:23:18.731Z,70.51
2019-06-20T15:25:49.098Z,70.27
2019-06-20T15:28:18.371Z,69.99
2019-06-20T15:30:48.613Z,70.46
2019-06-20T15:33:17.966Z,71.67
2019-06-20T15:35:47.198Z,71.51
2019-06-20T15:38:17.561Z,72.19
2019-06-20T15:40:47.943Z,71.70
2019-06-20T15:43:17.188Z,73.29
2019-06-20T15:45:48.403Z,72.61
2019-06-20T15:48:17.221Z,72.25
2019-06-20T15:50:46.131Z,74.13
2019-06-20T15:53:15.020Z,73.79
2019-06-20T15:55:43.918Z,75.33
2019-06-20T15:58:12.863Z,75.44
2019-06-20T16:00:41.657Z,80.42
2019-06-20T16:03:14.399Z,80.55
2019-06-20T16:05:41.396Z,82.10
2019-06-20T16:08:10.633Z,83.43
2019-06-20T16:10:39.446Z,82.83
2019-06-20T16:13:08.623Z,84.15
2019-06-20T16:15:37.494Z,86.17
2019-06-20T16:18:06.849Z,83.46
2019-06-20T16:20:36.919Z,84.98
2019-06-20T16:23:05.824Z,84.01
2019-06-20T16:25:34.766Z,83.60
2019-06-20T16:28:03.796Z,84.32
2019-06-20T16:30:34.127Z,84.06
2019-06-20T16:33:03.083Z,82.17
2019-06-20T16:35:32.012Z,81.94
2019-06-20T16:38:00.942Z,78.50
2019-06-20T16:40:46.376Z,80.38
2019-06-20T16:43:15.551Z,79.53
2019-06-20T16:45:44.900Z,76.21
2019-06-20T16:48:14.851Z,77.19
2019-06-20T16:50:44.724Z,77.13
2019-06-20T16:53:16.800Z,77.39
2019-06-20T16:55:46.905Z,76.10
2019-06-20T16:58:16.432Z,75.63
2019-06-20T17:00:45.598Z,73.21
2019-06-20T17:03:14.682Z,73.29
2019-06-20T17:05:44.623Z,72.52
2019-06-20T17:08:13.451Z,73.96
2019-06-20T17:10:43.456Z,75.36
2019-06-20T17:13:12.417Z,75.61
2019-06-20T17:15:44.176Z,75.83
2019-06-20T17:18:13.150Z,76.08
2019-06-20T17:20:43.294Z,76.41
2019-06-20T17:23:12.240Z,76.46
2019-06-20T17:25:41.600Z,73.34
2019-06-20T17:28:10.653Z,73.06
2019-06-20T17:30:39.811Z,74.23
2019-06-20T17:33:08.996Z,71.04
2019-06-20T17:35:38.168Z,70.66
2019-06-20T17:38:07.130Z,71.75
2019-06-20T17:40:36.074Z,70.34
2019-06-20T17:43:05.341Z,70.31
2019-06-20T17:45:34.293Z,70.55
2019-06-20T17:48:03.137Z,72.63
2019-06-20T17:50:32.091Z,72.12
2019-06-20T17:53:00.928Z,72.52
2019-06-20T17:55:31.012Z,70.84
2019-06-20T17:58:00.186Z,71.63
2019-06-20T18:00:29.256Z,72.92
2019-06-20T18:02:58.136Z,73.05
2019-06-20T18:05:27.238Z,71.45
2019-06-20T18:08:13.888Z,71.19
2019-06-20T18:10:30.132Z,71.69
2019-06-20T18:12:59.721Z,71.87
2019-06-20T18:15:33.811Z,74.40
2019-06-20T18:18:01.339Z,73.56
2019-06-20T18:24:09.910Z,72.25
2019-06-20T18:26:40.566Z,75.15
2019-06-20T18:29:10.591Z,75.43
2019-06-20T18:31:42.362Z,77.54
2019-06-20T18:34:11.328Z,78.37
2019-06-20T18:36:43.335Z,79.00
2019-06-20T18:39:11.135Z,78.70
2019-06-20T18:41:39.973Z,79.23
2019-06-20T18:44:08.837Z,80.58
2019-06-20T18:46:38.556Z,80.73
2019-06-20T18:49:07.588Z,81.56
2019-06-20T18:51:38.525Z,80.87
2019-06-20T18:54:09.684Z,81.85
2019-06-20T18:56:38.734Z,81.69
2019-06-20T18:59:07.601Z,83.14
2019-06-20T19:01:39.552Z,83.20
2019-06-20T19:04:08.576Z,82.60
2019-06-20T19:06:37.605Z,84.11
2019-06-20T19:09:08.271Z,83.55
2019-06-20T19:11:37.164Z,84.74
2019-06-20T19:14:06.143Z,84.67
2019-06-20T19:16:36.418Z,84.75
2019-06-20T19:19:05.424Z,85.55
2019-06-20T19:21:34.241Z,83.87
2019-06-20T19:24:03.356Z,85.14
2019-06-20T19:26:32.246Z,85.73
2019-06-20T19:29:02.217Z,86.08
2019-06-20T19:31:31.136Z,86.10
2019-06-20T19:34:00.111Z,85.52
2019-06-20T19:36:29.935Z,85.25
2019-06-20T19:38:58.908Z,85.32
2019-06-20T19:41:27.680Z,85.72
2019-06-20T19:43:56.899Z,85.78
2019-06-20T19:46:25.771Z,86.04
2019-06-20T19:48:54.678Z,86.31
2019-06-20T19:51:23.603Z,87.30
2019-06-20T19:53:52.539Z,87.12
2019-06-20T19:56:23.553Z,87.07
2019-06-20T19:58:52.709Z,86.80
2019-06-20T20:01:21.808Z,87.63
2019-06-20T20:03:50.976Z,89.46
2019-06-20T20:06:20.068Z,89.78
2019-06-20T20:08:49.242Z,90.68
2019-06-20T20:11:18.165Z,90.75
2019-06-20T20:13:47.061Z,90.30
2019-06-20T20:16:16.162Z,91.03
2019-06-20T20:18:45.173Z,92.34
2019-06-20T20:21:14.110Z,92.07
2019-06-20T20:23:43.173Z,92.40
2019-06-20T20:26:12.270Z,91.92
2019-06-20T20:29:19.710Z,91.09
2019-06-20T20:31:48.914Z,90.49
2019-06-20T20:34:18.007Z,89.59
2019-06-20T20:36:47.018Z,89.70
2019-06-20T20:39:17.037Z,90.00
2019-06-20T20:41:45.992Z,90.07
2019-06-20T20:44:15.241Z,89.21
2019-06-20T20:46:44.246Z,88.57
2019-06-20T20:49:13.208Z,89.88
2019-06-20T20:51:42.108Z,89.57
2019-06-20T20:54:10.967Z,89.33
2019-06-20T20:56:40.023Z,89.69
2019-06-20T20:59:08.876Z,91.47
2019-06-20T21:01:37.804Z,92.31
2019-06-20T21:04:06.842Z,92.71
2019-06-20T21:06:35.668Z,93.52
2019-06-20T21:09:06.117Z,94.31
2019-06-20T21:15:39.420Z,95.20
2019-06-20T21:18:11.879Z,95.89
2019-06-20T21:20:47.982Z,95.57
2019-06-20T21:23:16.887Z,95.27
2019-06-20T21:25:45.768Z,94.48
2019-06-20T21:31:44.912Z,95.91
2019-06-20T21:34:13.769Z,96.59
2019-06-20T21:36:44.340Z,95.46
2019-06-20T21:39:13.177Z,96.53
2019-06-20T21:41:42.092Z,96.38
2019-06-20T21:44:10.931Z,95.55
2019-06-20T21:46:41.135Z,95.95
2019-06-20T21:49:10.248Z,96.03
2019-06-20T21:51:39.186Z,95.45
2019-06-20T21:54:08.157Z,95.67
2019-06-20T21:56:37.051Z,95.04
2019-06-20T21:59:05.928Z,95.33
2019-06-20T22:01:35.354Z,94.33
2019-06-20T22:04:04.231Z,95.05
2019-06-20T22:06:33.158Z,94.58
2019-06-20T22:09:02.788Z,93.78
2019-06-20T22:11:32.890Z,93.39
2019-06-20T22:14:01.825Z,95.10
2019-06-20T22:16:30.688Z,94.14
2019-06-20T22:18:59.514Z,94.06
2019-06-20T22:21:28.474Z,94.27
2019-06-20T22:24:01.907Z,94.11
2019-06-20T22:26:31.162Z,94.52
2019-06-20T22:28:59.951Z,95.08
2019-06-20T22:31:28.891Z,96.06
2019-06-20T22:33:57.808Z,96.33
2019-06-20T22:36:39.678Z,96.70
2019-06-20T22:38:57.127Z,96.35
2019-06-20T22:41:26.179Z,94.98
2019-06-20T22:43:55.229Z,94.59
2019-06-20T22:46:24.325Z,95.33
2019-06-20T22:48:53.253Z,95.68
2019-06-20T22:51:22.295Z,96.19
2019-06-20T22:53:51.203Z,95.60
2019-06-20T22:56:20.142Z,95.97
2019-06-20T22:58:51.049Z,95.45
2019-06-20T23:01:21.257Z,95.28
2019-06-20T23:03:50.402Z,95.25
2019-06-20T23:06:19.338Z,95.83
2019-06-20T23:08:49.942Z,95.44
2019-06-20T23:11:18.827Z,96.97
2019-06-20T23:13:47.610Z,96.39
2019-06-20T23:16:16.570Z,96.06
2019-06-20T23:18:45.540Z,96.42
2019-06-20T23:21:15.560Z,95.21
2019-06-20T23:23:44.391Z,95.28
2019-06-20T23:26:13.502Z,95.43
2019-06-20T23:28:42.384Z,96.32
2019-06-20T23:31:11.363Z,95.56
2019-06-20T23:33:40.559Z,95.97
2019-06-20T23:36:09.580Z,96.30
2019-06-20T23:38:38.618Z,95.66
2019-06-20T23:41:07.506Z,95.70
2019-06-20T23:43:36.434Z,95.80
2019-06-20T23:46:05.372Z,96.29
2019-06-20T23:48:34.799Z,96.71
2019-06-20T23:51:04.898Z,96.99
2019-06-20T23:53:34.071Z,95.87
2019-06-20T23:56:03.254Z,95.74
2019-06-20T23:58:32.216Z,97.02
